Time;durP1;ratioP1;P1;durP2;ratioP2;P2;SDS_P1;SDS_P2;PMS_P1;PMS_P2;Temp;Humidity;BMP_temperature;BMP_pressure;BME280_temperature;BME280_humidity;BME280_pressure;Samples;Min_cycle;Max_cycle;Signal;HPM_P1;HPM_P2
2022/05/19 00:02:05;;;;;;;22.83;18.20;;;15.00;99.90;;;;;;5057333;28;20238;-64
2022/05/19 00:04:31;;;;;;;26.00;19.60;;;14.90;99.90;;;;;;5068189;28;20052;-62
2022/05/19 00:06:57;;;;;;;26.75;19.60;;;14.90;99.90;;;;;;5065725;28;20048;-67
2022/05/19 00:09:23;;;;;;;24.23;19.27;;;14.90;99.90;;;;;;5048684;28;20040;-62
2022/05/19 00:11:51;;;;;;;25.20;17.65;;;14.90;99.90;;;;;;5046338;28;20053;-64
2022/05/19 00:14:18;;;;;;;26.67;19.30;;;14.90;99.90;;;;;;5069625;28;20383;-60
2022/05/19 00:16:44;;;;;;;23.48;17.80;;;14.90;99.90;;;;;;5066174;28;20074;-65
2022/05/19 00:19:11;;;;;;;30.52;20.45;;;14.80;99.90;;;;;;5042432;28;20036;-64
2022/05/19 00:21:38;;;;;;;26.95;18.52;;;14.80;99.90;;;;;;5067124;28;20052;-64
2022/05/19 00:24:04;;;;;;;23.77;19.10;;;14.80;99.90;;;;;;5068168;28;20040;-67
2022/05/19 00:26:30;;;;;;;25.77;20.92;;;14.80;99.90;;;;;;5061226;28;20449;-64
2022/05/19 00:28:56;;;;;;;27.05;21.52;;;14.90;99.90;;;;;;5063602;28;20040;-59
2022/05/19 00:31:21;;;;;;;24.02;19.30;;;14.80;99.90;;;;;;5061747;28;20691;-59
2022/05/19 00:33:47;;;;;;;32.30;20.98;;;14.80;99.90;;;;;;5049961;28;20041;-58
2022/05/19 00:36:16;;;;;;;32.53;21.63;;;14.80;99.90;;;;;;5051085;28;20474;-59
2022/05/19 00:38:42;;;;;;;30.58;22.08;;;14.80;99.90;;;;;;5064173;28;20064;-59
2022/05/19 00:41:10;;;;;;;29.38;22.58;;;14.80;99.90;;;;;;5056133;28;20048;-58
2022/05/19 00:43:43;;;;;;;27.80;22.98;;;14.70;99.90;;;;;;5067342;28;20502;-59
2022/05/19 00:46:23;;;;;;;39.08;25.50;;;14.80;99.90;;;;;;5065956;28;20371;-59
2022/05/19 00:48:55;;;;;;;37.10;26.15;;;14.70;99.90;;;;;;5064641;28;20423;-59
2022/05/19 00:51:41;;;;;;;37.60;25.77;;;14.70;99.90;;;;;;5068491;28;20047;-59
2022/05/19 00:54:12;;;;;;;36.58;26.75;;;14.70;99.90;;;;;;5063963;28;20135;-58
2022/05/19 00:56:59;;;;;;;35.90;28.92;;;14.70;99.90;;;;;;5066447;28;20049;-58
2022/05/19 00:59:30;;;;;;;37.33;26.40;;;14.70;99.90;;;;;;5063421;28;20052;-58
2022/05/19 01:01:56;;;;;;;44.47;30.25;;;14.70;99.90;;;;;;5053229;28;20087;-58
2022/05/19 01:04:57;;;;;;;37.97;28.90;;;14.60;99.90;;;;;;5067663;28;20117;-60
2022/05/19 01:07:34;;;;;;;36.10;30.10;;;14.70;99.90;;;;;;5069214;28;20129;-60
2022/05/19 01:10:03;;;;;;;38.28;29.17;;;14.60;99.90;;;;;;5070921;28;20516;-57
2022/05/19 01:12:29;;;;;;;45.30;32.90;;;14.60;99.90;;;;;;5067749;28;20040;-59
2022/05/19 01:14:55;;;;;;;40.67;30.45;;;14.70;99.90;;;;;;5062873;28;20421;-59
2022/05/19 01:17:22;;;;;;;44.03;33.25;;;14.70;99.90;;;;;;5068775;28;20048;-60
2022/05/19 01:20:02;;;;;;;44.95;34.83;;;14.70;99.90;;;;;;5062499;28;20044;-59
2022/05/19 01:22:43;;;;;;;45.72;34.00;;;14.70;99.90;;;;;;5038132;28;20052;-60
2022/05/19 01:25:50;;;;;;;49.95;36.03;;;14.70;99.90;;;;;;5065296;28;20059;-59
2022/05/19 01:28:16;;;;;;;54.92;37.58;;;14.70;99.90;;;;;;5065662;28;20048;-59
2022/05/19 01:30:44;;;;;;;46.35;35.80;;;14.70;99.90;;;;;;5064157;28;20047;-59
2022/05/19 01:33:10;;;;;;;54.03;37.08;;;14.70;99.90;;;;;;5053895;28;20101;-58
2022/05/19 01:35:36;;;;;;;49.50;34.97;;;14.70;99.90;;;;;;5047537;28;20056;-58
2022/05/19 01:38:27;;;;;;;49.03;36.42;;;14.70;99.90;;;;;;5045318;28;20047;-59
2022/05/19 01:41:07;;;;;;;47.83;35.88;;;14.70;99.90;;;;;;5047912;28;20048;-61
2022/05/19 01:43:47;;;;;;;48.92;34.65;;;14.70;99.90;;;;;;5065417;28;20070;-59
2022/05/19 01:46:34;;;;;;;44.90;35.28;;;14.70;99.90;;;;;;5062657;28;20047;-59
2022/05/19 01:49:15;;;;;;;44.28;32.40;;;14.80;99.90;;;;;;5048665;28;20494;-60
2022/05/19 01:52:02;;;;;;;40.72;33.78;;;14.80;99.90;;;;;;5064098;28;20124;-59
2022/05/19 01:55:06;;;;;;;43.45;33.60;;;14.80;99.90;;;;;;5063664;28;20467;-59
2022/05/19 01:57:42;;;;;;;47.10;34.20;;;14.80;99.90;;;;;;5064188;28;20059;-59
2022/05/19 02:00:28;;;;;;;40.83;31.48;;;14.80;99.90;;;;;;5061695;28;20474;-59
2022/05/19 02:03:00;;;;;;;45.38;34.70;;;14.90;99.90;;;;;;5039345;28;20052;-58
2022/05/19 02:05:40;;;;;;;44.85;35.17;;;14.90;99.90;;;;;;5067986;28;20112;-59
2022/05/19 02:08:11;;;;;;;43.38;33.00;;;14.90;99.90;;;;;;5067201;28;20102;-58
2022/05/19 02:10:41;;;;;;;44.35;33.17;;;14.90;99.90;;;;;;5066715;28;20374;-59
2022/05/19 02:13:08;;;;;;;49.47;36.63;;;15.00;99.90;;;;;;5069507;28;20047;-59
2022/05/19 02:15:41;;;;;;;58.28;36.10;;;15.00;99.90;;;;;;5062751;28;20087;-59
2022/05/19 02:18:07;;;;;;;52.45;37.35;;;15.00;99.90;;;;;;5064679;28;20108;-59
2022/05/19 02:20:35;;;;;;;49.08;36.97;;;15.10;99.90;;;;;;5063800;28;20044;-59
2022/05/19 02:23:01;;;;;;;49.63;37.40;;;15.10;99.90;;;;;;5065253;28;20086;-59
2022/05/19 02:25:34;;;;;;;51.22;38.47;;;15.10;99.90;;;;;;5066717;28;20170;-59
2022/05/19 02:28:08;;;;;;;58.63;41.47;;;15.10;99.90;;;;;;5067509;28;20032;-58
2022/05/19 02:30:36;;;;;;;60.85;43.50;;;15.10;99.90;;;;;;5064391;28;20056;-60
2022/05/19 02:33:02;;;;;;;61.08;46.90;;;15.10;99.90;;;;;;5066105;28;20080;-59
2022/05/19 02:35:29;;;;;;;70.80;49.63;;;15.10;99.90;;;;;;5035388;28;21228;-61
2022/05/19 02:37:56;;;;;;;68.70;49.17;;;15.20;99.90;;;;;;5062708;28;20138;-59
2022/05/19 02:40:26;;;;;;;69.65;51.05;;;15.20;99.90;;;;;;5064552;28;20126;-59
2022/05/19 02:42:52;;;;;;;64.72;49.17;;;15.20;99.90;;;;;;5065017;28;20052;-58
2022/05/19 02:45:19;;;;;;;73.70;53.20;;;15.30;99.90;;;;;;5050241;28;20074;-60
2022/05/19 02:47:45;;;;;;;72.63;52.45;;;15.20;99.90;;;;;;5043061;28;20044;-59
2022/05/19 02:50:13;;;;;;;78.80;52.65;;;15.30;99.90;;;;;;5060653;28;20048;-60
2022/05/19 02:52:39;;;;;;;68.80;51.28;;;15.30;99.90;;;;;;5065057;28;20492;-58
2022/05/19 02:55:05;;;;;;;70.25;49.92;;;15.40;99.90;;;;;;5064627;28;20431;-60
2022/05/19 02:57:32;;;;;;;67.97;50.83;;;15.40;99.90;;;;;;5044472;28;20060;-58
2022/05/19 02:59:58;;;;;;;63.03;47.25;;;15.40;99.90;;;;;;5068990;28;20044;-59
2022/05/19 03:02:24;;;;;;;65.57;46.42;;;15.40;99.90;;;;;;5048148;28;20044;-59
2022/05/19 03:04:50;;;;;;;62.67;45.72;;;15.50;99.90;;;;;;5063388;28;20056;-60
2022/05/19 03:07:16;;;;;;;61.13;44.53;;;15.50;99.90;;;;;;5065480;28;20036;-61
2022/05/19 03:09:44;;;;;;;57.03;42.40;;;15.50;99.90;;;;;;5072751;28;20040;-60
2022/05/19 03:12:11;;;;;;;57.17;43.40;;;15.60;99.90;;;;;;5070520;28;20056;-60
2022/05/19 03:14:37;;;;;;;61.05;41.45;;;15.60;99.90;;;;;;5051466;28;20048;-58
2022/05/19 03:17:07;;;;;;;57.83;40.85;;;15.60;99.90;;;;;;5068179;28;20592;-59
2022/05/19 03:19:34;;;;;;;60.45;41.50;;;15.70;99.90;;;;;;5066257;28;20109;-59
2022/05/19 03:22:00;;;;;;;57.53;39.75;;;15.70;99.90;;;;;;5064993;28;20059;-59
2022/05/19 03:24:26;;;;;;;54.72;39.75;;;15.70;99.90;;;;;;5054742;28;20040;-59
2022/05/19 03:26:52;;;;;;;50.25;37.78;;;15.70;99.90;;;;;;5066666;28;20040;-60
2022/05/19 03:29:18;;;;;;;53.03;38.40;;;15.80;99.90;;;;;;5057593;28;20109;-58
2022/05/19 03:31:44;;;;;;;56.70;37.38;;;15.80;99.90;;;;;;5064744;28;20091;-60
2022/05/19 03:34:09;;;;;;;52.30;38.88;;;15.80;99.90;;;;;;5065902;28;20135;-59
2022/05/19 03:36:35;;;;;;;53.70;37.92;;;15.80;99.90;;;;;;5063250;28;20083;-59
2022/05/19 03:39:01;;;;;;;55.72;37.75;;;15.80;99.90;;;;;;5068151;28;20048;-60
2022/05/19 03:41:27;;;;;;;54.13;37.40;;;15.90;99.90;;;;;;5052520;28;20052;-59
2022/05/19 03:43:53;;;;;;;49.88;36.75;;;15.80;99.90;;;;;;5066206;28;20126;-59
2022/05/19 03:46:19;;;;;;;51.13;38.33;;;15.90;99.90;;;;;;5064439;28;20052;-59
2022/05/19 03:48:45;;;;;;;55.42;38.20;;;15.90;99.90;;;;;;5065871;28;20058;-58
2022/05/19 03:51:21;;;;;;;57.92;40.00;;;15.90;99.90;;;;;;5064036;28;20506;-58
2022/05/19 03:53:47;;;;;;;57.72;40.28;;;15.90;99.90;;;;;;5069412;28;20143;-58
2022/05/19 03:56:12;;;;;;;55.30;39.58;;;16.00;99.90;;;;;;5056051;28;20047;-60
2022/05/19 03:58:38;;;;;;;55.95;38.80;;;16.00;99.90;;;;;;5066304;28;20052;-59
2022/05/19 04:01:05;;;;;;;53.58;39.22;;;16.00;99.90;;;;;;5055177;28;20495;-58
2022/05/19 04:03:31;;;;;;;56.28;39.42;;;16.00;99.90;;;;;;5070777;28;20189;-59
2022/05/19 04:05:57;;;;;;;56.42;40.45;;;16.00;99.90;;;;;;5064067;28;20055;-58
2022/05/19 04:08:23;;;;;;;56.92;39.90;;;16.10;99.90;;;;;;5068571;28;20040;-60
2022/05/19 04:10:49;;;;;;;57.10;39.30;;;16.10;99.90;;;;;;5041384;28;20695;-59
2022/05/19 04:13:15;;;;;;;52.72;38.80;;;16.10;99.90;;;;;;5069266;28;20079;-59
2022/05/19 04:15:41;;;;;;;53.90;39.65;;;16.20;99.90;;;;;;5067108;28;20055;-60
2022/05/19 04:18:07;;;;;;;53.72;37.90;;;16.20;99.90;;;;;;5068941;28;20052;-58
2022/05/19 04:20:33;;;;;;;56.67;39.05;;;16.20;99.90;;;;;;5055816;28;20042;-60
2022/05/19 04:23:00;;;;;;;54.33;37.35;;;16.30;99.90;;;;;;5064516;28;20135;-59
2022/05/19 04:25:27;;;;;;;49.53;35.67;;;16.20;99.90;;;;;;5070055;28;20044;-59
2022/05/19 04:27:53;;;;;;;51.25;36.45;;;16.30;99.90;;;;;;5047050;28;20052;-59
2022/05/19 04:30:19;;;;;;;47.15;35.08;;;16.30;99.90;;;;;;5066587;28;20048;-59
2022/05/19 04:32:46;;;;;;;49.70;36.20;;;16.40;99.90;;;;;;5069145;28;20056;-58
2022/05/19 04:35:14;;;;;;;49.67;35.60;;;16.40;99.90;;;;;;5065497;28;20123;-60
2022/05/19 04:37:40;;;;;;;51.10;35.50;;;16.50;99.90;;;;;;5064478;28;20575;-58
2022/05/19 04:40:07;;;;;;;55.53;36.03;;;16.50;99.90;;;;;;5067276;28;20049;-59
2022/05/19 04:42:34;;;;;;;52.90;37.88;;;16.60;99.90;;;;;;5066840;28;20044;-59
2022/05/19 04:45:00;;;;;;;53.58;38.45;;;16.60;99.90;;;;;;5066209;28;20494;-58
2022/05/19 04:47:26;;;;;;;55.17;39.83;;;16.70;99.90;;;;;;5065175;28;20040;-60
2022/05/19 04:49:52;;;;;;;55.72;40.20;;;16.80;99.90;;;;;;5066235;28;20068;-60
2022/05/19 04:52:20;;;;;;;57.85;39.80;;;16.90;99.90;;;;;;5051249;28;20139;-59
2022/05/19 04:54:46;;;;;;;57.90;42.50;;;16.90;99.90;;;;;;5067762;28;20098;-60
2022/05/19 04:57:12;;;;;;;58.53;42.15;;;17.00;99.90;;;;;;5066919;28;20051;-58
2022/05/19 04:59:39;;;;;;;60.95;43.30;;;17.10;99.90;;;;;;5065883;28;20056;-59
2022/05/19 05:02:05;;;;;;;63.92;44.08;;;17.20;99.90;;;;;;5070071;28;20058;-59
2022/05/19 05:04:32;;;;;;;58.22;42.33;;;17.30;99.90;;;;;;5070657;28;21027;-58
2022/05/19 05:06:58;;;;;;;62.85;43.22;;;17.40;99.90;;;;;;5065780;28;20048;-60
2022/05/19 05:09:24;;;;;;;59.78;41.65;;;17.40;99.90;;;;;;5049628;28;20056;-58
2022/05/19 05:11:50;;;;;;;61.72;42.63;;;17.50;99.90;;;;;;5065234;28;20048;-58
2022/05/19 05:14:17;;;;;;;63.13;44.40;;;17.50;99.90;;;;;;5069253;28;20106;-58
2022/05/19 05:16:49;;;;;;;58.08;41.22;;;17.60;99.90;;;;;;5063322;28;20059;-59
2022/05/19 05:19:21;;;;;;;61.60;42.90;;;17.60;99.90;;;;;;5064857;28;20478;-60
2022/05/19 05:21:57;;;;;;;51.78;35.92;;;17.70;99.90;;;;;;5065549;28;20063;-60
2022/05/19 05:24:24;;;;;;;54.03;39.90;;;17.70;99.90;;;;;;5062559;28;20051;-60
2022/05/19 05:26:50;;;;;;;58.13;40.20;;;17.80;99.90;;;;;;5051677;28;20402;-59
2022/05/19 05:29:16;;;;;;;56.67;39.90;;;17.90;99.90;;;;;;5046003;28;20559;-59
2022/05/19 05:31:42;;;;;;;57.17;40.47;;;17.90;99.90;;;;;;5047554;28;20060;-58
2022/05/19 05:34:08;;;;;;;52.05;40.33;;;17.90;99.90;;;;;;5038365;28;20051;-58
2022/05/19 05:36:34;;;;;;;59.33;41.13;;;18.00;99.90;;;;;;5052925;28;20456;-58
2022/05/19 05:39:00;;;;;;;53.13;41.03;;;18.00;99.90;;;;;;5066177;28;20056;-59
2022/05/19 05:41:26;;;;;;;54.47;41.70;;;18.10;99.90;;;;;;5061475;28;20048;-58
2022/05/19 05:43:52;;;;;;;54.78;40.15;;;18.10;99.90;;;;;;5064324;28;20055;-59
2022/05/19 05:46:18;;;;;;;54.97;40.90;;;18.10;99.90;;;;;;5064186;28;20044;-60
2022/05/19 05:48:45;;;;;;;57.80;41.35;;;18.20;99.90;;;;;;5044958;28;20806;-59
2022/05/19 05:51:13;;;;;;;52.35;39.22;;;18.30;99.90;;;;;;5063346;28;20044;-59
2022/05/19 05:53:40;;;;;;;50.90;39.60;;;18.40;99.90;;;;;;5062781;28;20055;-60
2022/05/19 05:56:09;;;;;;;48.45;36.65;;;18.50;99.90;;;;;;5064944;28;20451;-59
2022/05/19 05:58:35;;;;;;;51.13;35.08;;;18.50;99.90;;;;;;5070555;28;20044;-60
2022/05/19 06:01:03;;;;;;;48.05;34.00;;;18.60;99.90;;;;;;5068975;28;20180;-58
2022/05/19 06:03:29;;;;;;;44.25;34.05;;;18.60;99.90;;;;;;5064238;28;20442;-59
2022/05/19 06:05:55;;;;;;;46.22;33.88;;;18.70;99.90;;;;;;5064287;28;20085;-59
2022/05/19 06:08:21;;;;;;;47.22;31.60;;;18.70;99.90;;;;;;5063743;28;20061;-59
2022/05/19 06:10:46;;;;;;;64.85;33.10;;;18.70;99.90;;;;;;5058242;28;20109;-60
2022/05/19 06:13:15;;;;;;;51.75;30.38;;;18.80;99.90;;;;;;5047469;28;20446;-63
2022/05/19 06:15:41;;;;;;;39.88;29.00;;;18.80;99.90;;;;;;5058906;28;20458;-61
2022/05/19 06:18:07;;;;;;;37.90;29.38;;;18.80;99.90;;;;;;5050795;28;20079;-63
2022/05/19 06:20:34;;;;;;;40.90;28.98;;;18.90;99.90;;;;;;5068390;28;20087;-62
2022/05/19 06:23:00;;;;;;;45.30;29.65;;;18.90;99.90;;;;;;5038733;28;20075;-63
2022/05/19 06:25:26;;;;;;;38.55;26.70;;;18.90;99.90;;;;;;5039775;28;20052;-61
2022/05/19 06:27:53;;;;;;;40.75;26.85;;;19.00;99.90;;;;;;5071161;28;20105;-63
2022/05/19 06:30:20;;;;;;;32.05;25.00;;;19.10;99.90;;;;;;5033472;28;20083;-62
2022/05/19 06:32:50;;;;;;;37.63;25.50;;;19.10;99.90;;;;;;5051210;28;20039;-61
2022/05/19 06:35:20;;;;;;;39.63;25.42;;;19.10;99.90;;;;;;5050611;28;20067;-62
2022/05/19 06:37:46;;;;;;;39.88;26.00;;;19.20;99.90;;;;;;5074134;28;20051;-63
2022/05/19 06:40:16;;;;;;;33.10;24.67;;;19.20;99.90;;;;;;5051086;28;20049;-63
2022/05/19 06:42:43;;;;;;;34.10;27.00;;;19.20;99.90;;;;;;5048795;28;20081;-62
2022/05/19 06:45:11;;;;;;;34.47;25.73;;;19.20;99.90;;;;;;5053006;28;20048;-62
2022/05/19 06:47:37;;;;;;;35.63;26.23;;;19.20;99.90;;;;;;5073468;28;20040;-62
2022/05/19 06:50:10;;;;;;;30.58;22.80;;;19.20;99.90;;;;;;5070211;28;20525;-62
2022/05/19 06:52:53;;;;;;;30.20;22.65;;;19.10;99.90;;;;;;5043526;28;20059;-62
2022/05/19 06:55:21;;;;;;;31.90;22.52;;;19.10;99.90;;;;;;5045570;28;20117;-63
2022/05/19 06:57:47;;;;;;;29.63;21.63;;;19.00;99.90;;;;;;5045906;28;20045;-64
2022/05/19 07:00:20;;;;;;;30.17;21.65;;;18.90;99.90;;;;;;5044537;28;20055;-63
2022/05/19 07:02:53;;;;;;;;;;;18.90;99.90;;;;;;5048122;28;20052;-63
2022/05/19 07:05:22;;;;;;;32.03;22.88;;;18.80;99.90;;;;;;5049590;28;20535;-63
2022/05/19 07:07:48;;;;;;;29.95;22.42;;;18.80;99.90;;;;;;5052323;28;20058;-63
2022/05/19 07:10:16;;;;;;;28.58;22.95;;;18.80;99.90;;;;;;5031637;28;20056;-64
2022/05/19 07:12:45;;;;;;;28.35;22.17;;;18.80;99.90;;;;;;5063789;28;20044;-64
2022/05/19 07:15:14;;;;;;;27.98;22.13;;;18.80;99.90;;;;;;5054321;28;20084;-62
2022/05/19 07:17:41;;;;;;;29.95;21.98;;;18.80;99.90;;;;;;5047948;28;20058;-63
2022/05/19 07:22:52;;;;;;;30.23;23.63;;;18.90;99.90;;;;;;5063802;28;20677;-62
2022/05/19 07:25:18;;;;;;;32.28;24.85;;;18.90;99.90;;;;;;5035160;28;20655;-62
2022/05/19 07:27:44;;;;;;;31.75;25.30;;;18.90;99.90;;;;;;5047314;28;20059;-64
2022/05/19 07:30:11;;;;;;;33.53;24.35;;;18.90;99.90;;;;;;5063978;28;20067;-63
2022/05/19 07:32:38;;;;;;;30.05;24.55;;;18.90;99.90;;;;;;5069135;28;20581;-63
2022/05/19 07:35:05;;;;;;;31.05;21.83;;;18.90;99.90;;;;;;5063658;28;20304;-63
2022/05/19 07:37:31;;;;;;;26.50;18.75;;;18.90;99.90;;;;;;5030362;28;20502;-62
2022/05/19 07:39:57;;;;;;;26.73;19.05;;;18.80;99.90;;;;;;5040549;28;20834;-62
2022/05/19 07:42:24;;;;;;;30.33;19.27;;;18.80;99.90;;;;;;5066629;28;20048;-61
2022/05/19 07:44:51;;;;;;;26.95;17.20;;;18.80;99.90;;;;;;5045295;28;20580;-63
2022/05/19 07:47:19;;;;;;;28.60;18.35;;;18.80;99.90;;;;;;5064892;28;20384;-61
2022/05/19 07:49:45;;;;;;;24.60;14.88;;;18.80;99.90;;;;;;5054543;28;20090;-60
2022/05/19 07:52:11;;;;;;;22.52;13.90;;;18.80;99.90;;;;;;5043587;28;20494;-62
2022/05/19 07:54:38;;;;;;;21.13;12.75;;;18.90;99.90;;;;;;5064289;28;20040;-61
2022/05/19 07:57:04;;;;;;;16.63;11.30;;;18.80;99.90;;;;;;5036873;28;20148;-63
2022/05/19 07:59:30;;;;;;;19.98;11.60;;;18.90;99.90;;;;;;5050211;28;20137;-61
2022/05/19 08:01:56;;;;;;;22.50;13.10;;;18.90;99.90;;;;;;5053284;28;20044;-63
2022/05/19 08:04:25;;;;;;;27.42;10.63;;;19.00;99.90;;;;;;5021020;28;20380;-62
2022/05/19 08:06:52;;;;;;;16.83;9.05;;;19.00;99.90;;;;;;5064888;28;20379;-63
2022/05/19 08:12:03;;;;;;;26.35;10.60;;;19.10;99.90;;;;;;5047258;28;20056;-62
2022/05/19 08:17:19;;;;;;;21.30;8.65;;;19.20;99.90;;;;;;5064578;28;20371;-62
2022/05/19 08:19:46;;;;;;;19.27;9.40;;;19.20;99.90;;;;;;5048658;28;20052;-62
2022/05/19 08:22:12;;;;;;;19.60;9.27;;;19.30;99.90;;;;;;5046507;28;20053;-63
2022/05/19 08:24:38;;;;;;;20.05;9.40;;;19.20;99.90;;;;;;5036228;28;20117;-63
2022/05/19 08:27:05;;;;;;;17.85;8.93;;;19.20;99.90;;;;;;5050130;28;20055;-62
2022/05/19 08:29:32;;;;;;;17.15;8.82;;;19.20;99.90;;;;;;5046948;28;20731;-62
2022/05/19 08:31:58;;;;;;;21.25;9.27;;;19.30;99.90;;;;;;5044091;28;20048;-62
2022/05/19 08:34:24;;;;;;;16.27;8.48;;;19.20;99.90;;;;;;5016716;28;20050;-64
2022/05/19 08:36:50;;;;;;;20.08;9.27;;;19.20;99.90;;;;;;5061580;28;20080;-61
2022/05/19 08:39:18;;;;;;;18.05;8.60;;;19.20;99.90;;;;;;5021728;28;20094;-63
2022/05/19 08:41:50;;;;;;;15.52;8.32;;;19.30;99.90;;;;;;5033151;28;20588;-63
2022/05/19 08:44:24;;;;;;;15.02;8.82;;;19.20;99.90;;;;;;5055793;28;20048;-63
2022/05/19 08:46:52;;;;;;;13.40;8.10;;;19.30;99.90;;;;;;5045927;28;20170;-64
2022/05/19 08:49:48;;;;;;;13.65;7.95;;;19.40;99.90;;;;;;5048019;28;20106;-62
2022/05/19 08:52:23;;;;;;;15.10;8.13;;;19.50;99.90;;;;;;5031360;28;20387;-64
2022/05/19 08:54:52;;;;;;;17.30;8.07;;;19.60;99.90;;;;;;5052338;28;20051;-64
2022/05/19 08:57:40;;;;;;;13.93;7.57;;;19.80;99.90;;;;;;5046147;28;20679;-62
2022/05/19 09:00:13;;;;;;;12.30;7.20;;;19.90;99.90;;;;;;5032922;28;20174;-62
2022/05/19 09:02:41;;;;;;;15.35;7.90;;;20.10;99.90;;;;;;5045530;28;20049;-61
2022/05/19 09:05:46;;;;;;;15.55;7.45;;;20.20;99.90;;;;;;5043013;28;20155;-62
2022/05/19 09:08:38;;;;;;;11.45;7.22;;;20.40;99.90;;;;;;5034904;28;20049;-63
2022/05/19 09:11:06;;;;;;;16.25;7.18;;;20.50;99.90;;;;;;5046036;28;20052;-63
2022/05/19 09:13:52;;;;;;;13.05;7.90;;;20.70;99.90;;;;;;5047140;28;20079;-63
2022/05/19 09:16:25;;;;;;;12.70;7.53;;;20.80;99.90;;;;;;5050836;28;20048;-63
2022/05/19 09:19:09;;;;;;;13.63;7.60;;;21.00;99.90;;;;;;5037015;28;20048;-61
2022/05/19 09:21:38;;;;;;;9.88;6.22;;;21.10;99.90;;;;;;5042451;28;20044;-62
2022/05/19 09:24:05;;;;;;;10.07;6.47;;;21.20;99.90;;;;;;5033550;28;20052;-64
2022/05/19 09:26:43;;;;;;;12.75;6.80;;;21.40;99.90;;;;;;5046940;28;20041;-64
2022/05/19 09:29:15;;;;;;;10.65;6.65;;;21.40;99.90;;;;;;5044032;28;20121;-62
2022/05/19 09:31:56;;;;;;;9.23;5.95;;;21.50;99.90;;;;;;5046020;28;20052;-62
2022/05/19 09:34:27;;;;;;;14.73;6.20;;;21.60;99.90;;;;;;5029717;28;20067;-62
2022/05/19 09:37:12;;;;;;;10.18;6.10;;;21.70;99.90;;;;;;5045774;28;20060;-63
2022/05/19 09:39:48;;;;;;;7.05;5.20;;;21.90;99.90;;;;;;5047776;28;20057;-63
2022/05/19 09:42:19;;;;;;;7.90;5.22;;;22.00;99.90;;;;;;5042318;28;20051;-62
2022/05/19 09:44:57;;;;;;;8.00;5.53;;;22.10;99.90;;;;;;5054932;28;20460;-62
2022/05/19 09:47:44;;;;;;;9.65;5.72;;;22.30;99.90;;;;;;5044661;28;20040;-64
2022/05/19 09:50:44;;;;;;;8.48;6.03;;;22.40;99.90;;;;;;5044812;28;20060;-64
2022/05/19 09:53:22;;;;;;;8.93;5.00;;;22.40;99.90;;;;;;5050055;28;20036;-64
2022/05/19 09:56:00;;;;;;;14.73;6.00;;;22.60;99.90;;;;;;5048425;28;20044;-62
2022/05/19 09:58:30;;;;;;;11.32;6.10;;;22.80;99.90;;;;;;5054259;28;20741;-61
2022/05/19 10:01:05;;;;;;;7.97;5.43;;;22.90;99.90;;;;;;5044174;28;20181;-62
2022/05/19 10:03:48;;;;;;;8.68;5.25;;;22.90;99.90;;;;;;5043564;28;20048;-64
2022/05/19 10:06:20;;;;;;;12.73;5.75;;;23.00;99.90;;;;;;5061320;28;20117;-63
2022/05/19 10:08:48;;;;;;;12.02;5.78;;;23.00;99.90;;;;;;5043305;28;20509;-62
2022/05/19 10:11:13;;;;;;;9.40;5.38;;;23.10;99.90;;;;;;5063517;28;20051;-64
2022/05/19 10:13:48;;;;;;;13.68;5.32;;;23.20;99.90;;;;;;5048748;28;20394;-62
2022/05/19 10:17:02;;;;;;;8.10;5.30;;;23.20;99.90;;;;;;5059132;28;20075;-63
2022/05/19 10:19:51;;;;;;;7.88;5.38;;;23.20;99.90;;;;;;4988139;28;20143;-62
2022/05/19 10:22:48;;;;;;;8.43;5.40;;;23.20;99.90;;;;;;5067087;28;20040;-62
2022/05/19 10:25:20;;;;;;;7.60;5.00;;;23.20;99.90;;;;;;5042014;28;20043;-63
2022/05/19 10:31:04;;;;;;;8.07;4.60;;;23.60;99.90;;;;;;5012885;28;20074;-62
2022/05/19 10:33:48;;;;;;;9.07;4.72;;;23.90;99.90;;;;;;5026015;28;20044;-64
2022/05/19 10:36:17;;;;;;;10.82;4.78;;;24.20;99.90;;;;;;5057165;28;20079;-64
2022/05/19 10:38:51;;;;;;;6.22;3.75;;;24.60;99.90;;;;;;5054539;28;20507;-62
2022/05/19 10:41:42;;;;;;;6.93;4.20;;;25.00;99.90;;;;;;5049434;28;20104;-63
2022/05/19 10:44:21;;;;;;;10.65;3.97;;;25.20;99.60;;;;;;5048312;28;20098;-62
2022/05/19 10:47:01;;;;;;;9.70;3.58;;;25.20;98.40;;;;;;5049033;28;20072;-65
2022/05/19 10:50:01;;;;;;;6.50;3.00;;;25.00;97.90;;;;;;5049815;28;20041;-62
2022/05/19 10:52:43;;;;;;;4.97;2.97;;;24.90;97.20;;;;;;5050908;28;20507;-62
2022/05/19 10:55:32;;;;;;;7.68;3.25;;;24.80;97.40;;;;;;5048124;28;20045;-62
2022/05/19 10:58:13;;;;;;;4.90;3.30;;;25.00;97.50;;;;;;5038191;28;20577;-63
2022/05/19 11:00:42;;;;;;;5.07;2.60;;;25.20;97.10;;;;;;5039193;28;20131;-63
2022/05/19 11:03:40;;;;;;;6.68;3.25;;;25.60;96.80;;;;;;5048636;28;20049;-63
2022/05/19 11:06:15;;;;;;;5.53;3.80;;;26.10;96.60;;;;;;5027077;28;20048;-64
2022/05/19 11:08:57;;;;;;;5.97;4.03;;;26.40;95.40;;;;;;5043427;28;20469;-64
2022/05/19 11:11:42;;;;;;;;;;;26.60;94.10;;;;;;5026153;28;20072;-63
2022/05/19 11:14:10;;;;;;;6.00;3.10;;;26.50;94.30;;;;;;5043348;28;19931;-63
2022/05/19 11:17:05;;;;;;;5.65;3.55;;;26.60;92.90;;;;;;5033957;28;20052;-63
2022/05/19 11:19:35;;;;;;;6.15;3.22;;;26.60;92.00;;;;;;5037114;28;20052;-65
2022/05/19 11:22:07;;;;;;;4.50;3.10;;;26.80;91.40;;;;;;5043975;28;20047;-63
2022/05/19 11:27:50;;;;;;;8.57;5.38;;;26.90;88.90;;;;;;5044240;28;20478;-64
2022/05/19 11:30:20;;;;;;;7.72;5.78;;;26.90;88.20;;;;;;5048182;28;20048;-63
2022/05/19 11:32:55;;;;;;;6.97;5.50;;;26.90;88.00;;;;;;5046282;28;20044;-62
2022/05/19 11:35:30;;;;;;;10.43;4.95;;;26.90;88.60;;;;;;5042124;28;20056;-64
2022/05/19 11:38:09;;;;;;;9.32;5.75;;;27.00;88.00;;;;;;5042066;28;20044;-62
2022/05/19 11:41:15;;;;;;;6.85;4.47;;;27.00;88.40;;;;;;5045925;28;20155;-62
2022/05/19 11:44:12;;;;;;;9.35;5.38;;;27.00;87.50;;;;;;5039936;28;20523;-63
2022/05/19 11:46:49;;;;;;;10.93;5.85;;;26.90;85.80;;;;;;5041731;28;20045;-63
2022/05/19 11:55:32;;;;;;;9.23;5.05;;;26.50;87.10;;;;;;5043941;28;20392;-62
2022/05/19 11:58:22;;;;;;;7.88;5.78;;;26.60;87.70;;;;;;5050097;28;20099;-62
2022/05/19 12:00:55;;;;;;;8.80;5.95;;;26.60;85.60;;;;;;5043552;28;20050;-63
2022/05/19 12:03:42;;;;;;;8.63;5.70;;;26.50;85.20;;;;;;5029384;28;20068;-63
2022/05/19 12:06:13;;;;;;;10.25;7.43;;;26.30;84.50;;;;;;5040487;28;20076;-63
2022/05/19 12:08:56;;;;;;;11.50;8.67;;;26.10;83.80;;;;;;5041093;28;20045;-62
2022/05/19 12:11:30;;;;;;;9.70;8.43;;;25.80;84.80;;;;;;5049240;28;20748;-61
2022/05/19 12:14:19;;;;;;;11.15;8.50;;;25.60;86.10;;;;;;5032914;28;20478;-62
2022/05/19 12:16:52;;;;;;;16.23;9.27;;;25.40;87.40;;;;;;5043340;28;20041;-63
2022/05/19 12:19:38;;;;;;;10.93;8.18;;;25.20;88.30;;;;;;5059188;28;20067;-63
2022/05/19 12:22:17;;;;;;;12.68;7.60;;;25.10;89.70;;;;;;5043672;28;20071;-62
2022/05/19 12:25:16;;;;;;;10.68;7.22;;;24.90;90.00;;;;;;5043943;28;20041;-62
2022/05/19 12:27:55;;;;;;;8.95;6.70;;;24.80;90.20;;;;;;5037903;28;20482;-63
2022/05/19 12:33:24;;;;;;;10.88;7.65;;;24.60;90.90;;;;;;5036638;28;20040;-64
2022/05/19 12:35:59;;;;;;;11.75;9.25;;;24.60;91.60;;;;;;5032351;28;20481;-61
2022/05/19 12:38:30;;;;;;;10.27;8.68;;;24.40;91.70;;;;;;5033777;28;20114;-62
2022/05/19 12:41:00;;;;;;;13.57;9.70;;;24.40;92.40;;;;;;5030399;28;20052;-62
2022/05/19 12:43:41;;;;;;;15.27;10.68;;;24.40;93.00;;;;;;5037697;28;20059;-62
2022/05/19 12:46:13;;;;;;;13.27;10.20;;;24.30;93.30;;;;;;5031361;28;20056;-63
2022/05/19 12:48:38;;;;;;;15.65;10.32;;;24.30;93.80;;;;;;5042006;28;20048;-62
2022/05/19 12:51:14;;;;;;;16.50;9.98;;;24.10;94.40;;;;;;5045557;28;20467;-63
2022/05/19 12:53:49;;;;;;;17.77;10.70;;;24.00;95.40;;;;;;5038070;28;20463;-63
2022/05/19 12:56:40;;;;;;;19.80;12.23;;;23.80;96.50;;;;;;5038937;28;20037;-63
2022/05/19 12:59:42;;;;;;;20.80;8.55;;;23.60;98.30;;;;;;5042090;28;20134;-62
2022/05/19 13:02:25;;;;;;;9.63;4.50;;;23.20;99.80;;;;;;5038491;28;20149;-64
2022/05/19 13:04:57;;;;;;;8.45;2.60;;;22.60;99.90;;;;;;5044190;28;20068;-63
2022/05/19 13:07:23;;;;;;;;;;;22.10;99.90;;;;;;5044034;28;20041;-63
2022/05/19 13:09:58;;;;;;;6.75;3.60;;;21.60;99.90;;;;;;5038158;28;19932;-64
2022/05/19 13:12:27;;;;;;;7.40;4.43;;;21.30;99.90;;;;;;5022959;28;20153;-64
2022/05/19 13:15:00;;;;;;;5.85;4.03;;;21.10;99.90;;;;;;5036161;28;20044;-64
2022/05/19 13:17:46;;;;;;;7.65;4.18;;;20.90;99.90;;;;;;5036801;28;20148;-62
2022/05/19 13:20:17;;;;;;;7.70;4.53;;;20.80;99.90;;;;;;5038742;28;20045;-64
2022/05/19 13:22:50;;;;;;;9.80;5.18;;;20.60;99.90;;;;;;5039347;28;20109;-63